sensor_id;sensor_type;location;lat;lon;timestamp;pressure;altitude;pressure_sealevel;temperature;humidity
2785;BME280;57944;48.722;9.316;2022-10-31T00:02:21;98552.94;;;9.91;100.00
2785;BME280;57944;48.722;9.316;2022-10-31T00:04:51;98560.66;;;9.83;100.00
2785;BME280;57944;48.722;9.316;2022-10-31T00:07:21;98557.50;;;9.81;100.00
2785;BME280;57944;48.722;9.316;2022-10-31T00:09:51;98555.47;;;9.76;100.00
2785;BME280;57944;48.722;9.316;2022-10-31T00:12:21;98557.44;;;9.89;100.00
2785;BME280;57944;48.722;9.316;2022-10-31T00:14:51;98559.59;;;9.77;100.00
2785;BME280;57944;48.722;9.316;2022-10-31T00:17:24;98552.91;;;9.61;100.00
2785;BME280;57944;48.722;9.316;2022-10-31T00:19:54;98558.34;;;9.58;100.00
2785;BME280;57944;48.722;9.316;2022-10-31T00:22:25;98557.56;;;9.50;100.00
2785;BME280;57944;48.722;9.316;2022-10-31T00:24:55;98551.41;;;9.44;100.00
2785;BME280;57944;48.722;9.316;2022-10-31T00:27:25;98553.53;;;9.40;100.00
2785;BME280;57944;48.722;9.316;2022-10-31T00:29:55;98550.22;;;9.55;100.00
2785;BME280;57944;48.722;9.316;2022-10-31T00:32:28;98564.03;;;9.83;100.00
2785;BME280;57944;48.722;9.316;2022-10-31T00:34:59;98555.50;;;9.91;100.00
2785;BME280;57944;48.722;9.316;2022-10-31T00:37:29;98561.63;;;9.82;100.00
2785;BME280;57944;48.722;9.316;2022-10-31T00:39:59;98556.31;;;9.69;100.00
2785;BME280;57944;48.722;9.316;2022-10-31T00:42:30;98553.84;;;9.60;100.00
2785;BME280;57944;48.722;9.316;2022-10-31T00:45:00;98561.53;;;9.52;100.00
2785;BME280;57944;48.722;9.316;2022-10-31T00:47:33;98556.84;;;9.41;100.00
2785;BME280;57944;48.722;9.316;2022-10-31T00:50:05;98560.06;;;9.35;100.00
2785;BME280;57944;48.722;9.316;2022-10-31T00:52:35;98559.19;;;9.28;100.00
2785;BME280;57944;48.722;9.316;2022-10-31T00:55:06;98557.19;;;9.38;100.00
2785;BME280;57944;48.722;9.316;2022-10-31T00:57:36;98559.28;;;9.34;100.00
2785;BME280;57944;48.722;9.316;2022-10-31T01:00:09;98551.72;;;9.26;100.00
2785;BME280;57944;48.722;9.316;2022-10-31T01:02:42;98553.53;;;9.17;100.00
2785;BME280;57944;48.722;9.316;2022-10-31T01:05:13;98550.28;;;9.24;100.00
2785;BME280;57944;48.722;9.316;2022-10-31T01:07:45;98551.13;;;9.16;100.00
2785;BME280;57944;48.722;9.316;2022-10-31T01:10:15;98552.25;;;9.13;100.00
2785;BME280;57944;48.722;9.316;2022-10-31T01:12:48;98555.78;;;9.12;100.00
2785;BME280;57944;48.722;9.316;2022-10-31T01:15:22;98553.03;;;9.22;100.00
2785;BME280;57944;48.722;9.316;2022-10-31T01:17:55;98549.91;;;9.12;100.00
2785;BME280;57944;48.722;9.316;2022-10-31T01:20:26;98547.41;;;9.04;100.00
2785;BME280;57944;48.722;9.316;2022-10-31T01:22:57;98544.69;;;9.05;100.00
2785;BME280;57944;48.722;9.316;2022-10-31T01:25:27;98549.75;;;9.05;100.00
2785;BME280;57944;48.722;9.316;2022-10-31T01:27:57;98544.53;;;9.07;100.00
2785;BME280;57944;48.722;9.316;2022-10-31T01:30:28;98538.31;;;9.09;100.00
2785;BME280;57944;48.722;9.316;2022-10-31T01:33:00;98544.38;;;9.08;100.00
2785;BME280;57944;48.722;9.316;2022-10-31T01:35:30;98545.97;;;9.01;100.00
2785;BME280;57944;48.722;9.316;2022-10-31T01:38:00;98553.16;;;8.98;100.00
2785;BME280;57944;48.722;9.316;2022-10-31T01:40:31;98548.06;;;8.98;100.00
2785;BME280;57944;48.722;9.316;2022-10-31T01:43:01;98538.69;;;8.98;100.00
2785;BME280;57944;48.722;9.316;2022-10-31T01:45:31;98542.81;;;8.99;100.00
2785;BME280;57944;48.722;9.316;2022-10-31T01:48:04;98550.47;;;8.91;100.00
2785;BME280;57944;48.722;9.316;2022-10-31T01:50:38;98547.16;;;8.90;100.00
2785;BME280;57944;48.722;9.316;2022-10-31T01:53:11;98538.72;;;8.90;100.00
2785;BME280;57944;48.722;9.316;2022-10-31T01:55:45;98540.31;;;8.91;100.00
2785;BME280;57944;48.722;9.316;2022-10-31T01:58:22;98537.13;;;8.97;100.00
2785;BME280;57944;48.722;9.316;2022-10-31T02:00:59;98534.06;;;9.02;100.00
2785;BME280;57944;48.722;9.316;2022-10-31T02:03:36;98532.94;;;9.27;100.00
2785;BME280;57944;48.722;9.316;2022-10-31T02:06:15;98534.97;;;9.32;100.00
2785;BME280;57944;48.722;9.316;2022-10-31T02:08:50;98531.38;;;9.26;100.00
2785;BME280;57944;48.722;9.316;2022-10-31T02:11:21;98537.03;;;9.05;100.00
2785;BME280;57944;48.722;9.316;2022-10-31T02:13:52;98536.81;;;8.92;100.00
2785;BME280;57944;48.722;9.316;2022-10-31T02:16:22;98535.19;;;8.99;100.00
2785;BME280;57944;48.722;9.316;2022-10-31T02:18:56;98530.78;;;8.93;100.00
2785;BME280;57944;48.722;9.316;2022-10-31T02:21:35;98533.03;;;8.88;100.00
2785;BME280;57944;48.722;9.316;2022-10-31T02:24:46;98525.56;;;8.86;100.00
2785;BME280;57944;48.722;9.316;2022-10-31T02:27:57;98531.78;;;8.84;100.00
2785;BME280;57944;48.722;9.316;2022-10-31T02:33:25;98534.41;;;8.99;100.00
2785;BME280;57944;48.722;9.316;2022-10-31T02:36:09;98533.75;;;8.97;100.00
2785;BME280;57944;48.722;9.316;2022-10-31T02:38:52;98527.25;;;8.94;100.00
2785;BME280;57944;48.722;9.316;2022-10-31T02:41:44;98529.19;;;8.92;100.00
2785;BME280;57944;48.722;9.316;2022-10-31T02:44:26;98525.69;;;8.93;100.00
2785;BME280;57944;48.722;9.316;2022-10-31T02:47:03;98531.06;;;8.98;100.00
2785;BME280;57944;48.722;9.316;2022-10-31T02:49:44;98535.31;;;9.06;100.00
2785;BME280;57944;48.722;9.316;2022-10-31T02:52:20;98532.31;;;9.02;100.00
2785;BME280;57944;48.722;9.316;2022-10-31T02:54:52;98532.03;;;8.97;100.00
2785;BME280;57944;48.722;9.316;2022-10-31T02:57:25;98524.28;;;8.90;100.00
2785;BME280;57944;48.722;9.316;2022-10-31T03:00:06;98532.13;;;8.81;100.00
2785;BME280;57944;48.722;9.316;2022-10-31T03:03:00;98528.16;;;8.78;100.00
2785;BME280;57944;48.722;9.316;2022-10-31T03:05:54;98529.31;;;8.67;100.00
2785;BME280;57944;48.722;9.316;2022-10-31T03:08:35;98524.88;;;8.69;100.00
2785;BME280;57944;48.722;9.316;2022-10-31T03:11:10;98519.25;;;8.74;100.00
2785;BME280;57944;48.722;9.316;2022-10-31T03:13:46;98525.19;;;8.66;100.00
2785;BME280;57944;48.722;9.316;2022-10-31T03:16:27;98516.31;;;8.62;100.00
2785;BME280;57944;48.722;9.316;2022-10-31T03:19:06;98524.41;;;8.58;100.00
2785;BME280;57944;48.722;9.316;2022-10-31T03:21:44;98519.06;;;8.53;100.00
2785;BME280;57944;48.722;9.316;2022-10-31T03:24:16;98520.19;;;8.50;100.00
2785;BME280;57944;48.722;9.316;2022-10-31T03:26:53;98520.81;;;8.44;100.00
2785;BME280;57944;48.722;9.316;2022-10-31T03:29:29;98519.69;;;8.38;100.00
2785;BME280;57944;48.722;9.316;2022-10-31T03:32:07;98513.69;;;8.47;100.00
2785;BME280;57944;48.722;9.316;2022-10-31T03:34:41;98520.19;;;8.50;100.00
2785;BME280;57944;48.722;9.316;2022-10-31T03:37:20;98521.47;;;8.46;100.00
2785;BME280;57944;48.722;9.316;2022-10-31T03:39:55;98521.78;;;8.35;100.00
2785;BME280;57944;48.722;9.316;2022-10-31T03:42:30;98523.41;;;8.27;100.00
2785;BME280;57944;48.722;9.316;2022-10-31T03:45:08;98520.88;;;8.19;100.00
2785;BME280;57944;48.722;9.316;2022-10-31T03:47:42;98522.34;;;8.14;100.00
2785;BME280;57944;48.722;9.316;2022-10-31T03:50:16;98528.34;;;8.13;100.00
2785;BME280;57944;48.722;9.316;2022-10-31T03:52:56;98531.66;;;8.13;100.00
2785;BME280;57944;48.722;9.316;2022-10-31T03:55:36;98521.25;;;8.08;100.00
2785;BME280;57944;48.722;9.316;2022-10-31T03:58:17;98520.13;;;8.02;100.00
2785;BME280;57944;48.722;9.316;2022-10-31T04:00:52;98517.44;;;7.88;100.00
2785;BME280;57944;48.722;9.316;2022-10-31T04:03:28;98521.59;;;7.72;100.00
2785;BME280;57944;48.722;9.316;2022-10-31T04:06:05;98522.25;;;7.66;100.00
2785;BME280;57944;48.722;9.316;2022-10-31T04:08:54;98523.50;;;7.70;100.00
2785;BME280;57944;48.722;9.316;2022-10-31T04:11:32;98522.84;;;7.76;100.00
2785;BME280;57944;48.722;9.316;2022-10-31T04:14:26;98523.50;;;7.78;100.00
2785;BME280;57944;48.722;9.316;2022-10-31T04:16:58;98528.72;;;7.77;100.00
2785;BME280;57944;48.722;9.316;2022-10-31T04:19:35;98517.78;;;7.76;100.00
2785;BME280;57944;48.722;9.316;2022-10-31T04:22:05;98521.28;;;7.67;100.00
2785;BME280;57944;48.722;9.316;2022-10-31T04:24:40;98515.25;;;7.68;100.00
2785;BME280;57944;48.722;9.316;2022-10-31T04:27:13;98515.88;;;7.70;100.00
2785;BME280;57944;48.722;9.316;2022-10-31T04:29:43;98518.44;;;7.70;100.00
2785;BME280;57944;48.722;9.316;2022-10-31T04:32:17;98512.72;;;7.52;100.00
2785;BME280;57944;48.722;9.316;2022-10-31T04:34:47;98518.44;;;7.54;100.00
2785;BME280;57944;48.722;9.316;2022-10-31T04:37:17;98512.41;;;7.47;100.00
2785;BME280;57944;48.722;9.316;2022-10-31T04:39:50;98512.09;;;7.50;100.00
2785;BME280;57944;48.722;9.316;2022-10-31T04:42:39;98511.47;;;7.39;100.00
2785;BME280;57944;48.722;9.316;2022-10-31T04:45:10;98511.47;;;7.39;100.00
2785;BME280;57944;48.722;9.316;2022-10-31T04:47:48;98503.53;;;7.43;100.00
2785;BME280;57944;48.722;9.316;2022-10-31T04:50:18;98501.97;;;7.42;100.00
2785;BME280;57944;48.722;9.316;2022-10-31T04:52:48;98494.97;;;7.52;100.00
2785;BME280;57944;48.722;9.316;2022-10-31T04:55:26;98491.63;;;7.68;100.00
2785;BME280;57944;48.722;9.316;2022-10-31T04:58:28;98490.53;;;7.62;100.00
2785;BME280;57944;48.722;9.316;2022-10-31T05:00:58;98491.63;;;7.59;100.00
2785;BME280;57944;48.722;9.316;2022-10-31T05:03:29;98490.38;;;7.55;100.00
2785;BME280;57944;48.722;9.316;2022-10-31T05:05:59;98483.88;;;7.45;100.00
2785;BME280;57944;48.722;9.316;2022-10-31T05:08:29;98486.75;;;7.50;100.00
2785;BME280;57944;48.722;9.316;2022-10-31T05:11:05;98489.56;;;7.55;100.00
2785;BME280;57944;48.722;9.316;2022-10-31T05:13:36;98487.22;;;7.53;100.00
2785;BME280;57944;48.722;9.316;2022-10-31T05:16:12;98481.66;;;7.50;100.00
2785;BME280;57944;48.722;9.316;2022-10-31T05:19:01;98481.94;;;7.63;100.00
2785;BME280;57944;48.722;9.316;2022-10-31T05:21:49;98475.91;;;7.89;100.00
2785;BME280;57944;48.722;9.316;2022-10-31T05:24:20;98485.91;;;7.82;100.00
2785;BME280;57944;48.722;9.316;2022-10-31T05:26:54;98484.97;;;7.75;100.00
2785;BME280;57944;48.722;9.316;2022-10-31T05:29:24;98481.59;;;7.82;100.00
2785;BME280;57944;48.722;9.316;2022-10-31T05:31:54;98470.94;;;8.03;100.00
2785;BME280;57944;48.722;9.316;2022-10-31T05:34:42;98479.63;;;8.17;100.00
2785;BME280;57944;48.722;9.316;2022-10-31T05:37:32;98474.09;;;8.61;100.00
2785;BME280;57944;48.722;9.316;2022-10-31T05:40:02;98477.03;;;8.42;100.00
2785;BME280;57944;48.722;9.316;2022-10-31T05:42:38;98476.78;;;8.12;100.00
2785;BME280;57944;48.722;9.316;2022-10-31T05:45:11;98470.97;;;7.87;100.00
2785;BME280;57944;48.722;9.316;2022-10-31T05:47:54;98471.81;;;7.63;100.00
2785;BME280;57944;48.722;9.316;2022-10-31T05:50:43;98467.38;;;7.65;100.00
2785;BME280;57944;48.722;9.316;2022-10-31T05:53:14;98468.34;;;7.64;100.00
2785;BME280;57944;48.722;9.316;2022-10-31T05:55:45;98463.28;;;7.56;100.00
2785;BME280;57944;48.722;9.316;2022-10-31T05:58:21;98471.03;;;7.38;100.00
2785;BME280;57944;48.722;9.316;2022-10-31T06:01:09;98472.78;;;7.37;100.00
2785;BME280;57944;48.722;9.316;2022-10-31T06:03:39;98471.19;;;7.28;100.00
2785;BME280;57944;48.722;9.316;2022-10-31T06:06:09;98468.03;;;7.18;100.00
2785;BME280;57944;48.722;9.316;2022-10-31T06:08:41;98471.66;;;7.15;100.00
2785;BME280;57944;48.722;9.316;2022-10-31T06:11:14;98468.66;;;7.12;100.00
2785;BME280;57944;48.722;9.316;2022-10-31T06:14:10;98473.72;;;7.04;100.00
2785;BME280;57944;48.722;9.316;2022-10-31T06:16:49;98471.50;;;7.01;100.00
2785;BME280;57944;48.722;9.316;2022-10-31T06:19:48;98474.81;;;7.01;100.00
2785;BME280;57944;48.722;9.316;2022-10-31T06:22:23;98474.50;;;6.96;100.00
2785;BME280;57944;48.722;9.316;2022-10-31T06:24:54;98474.38;;;7.06;100.00
2785;BME280;57944;48.722;9.316;2022-10-31T06:27:28;98469.28;;;7.06;100.00
2785;BME280;57944;48.722;9.316;2022-10-31T06:30:09;98466.44;;;7.17;100.00
2785;BME280;57944;48.722;9.316;2022-10-31T06:32:40;98468.34;;;7.23;100.00
2785;BME280;57944;48.722;9.316;2022-10-31T06:35:10;98475.97;;;7.31;100.00
2785;BME280;57944;48.722;9.316;2022-10-31T06:37:41;98476.91;;;7.47;100.00
2785;BME280;57944;48.722;9.316;2022-10-31T06:40:27;98476.09;;;7.46;100.00
2785;BME280;57944;48.722;9.316;2022-10-31T06:43:17;98480.25;;;7.55;100.00
2785;BME280;57944;48.722;9.316;2022-10-31T06:45:51;98480.06;;;7.65;100.00
2785;BME280;57944;48.722;9.316;2022-10-31T06:48:21;98482.91;;;7.70;100.00
2785;BME280;57944;48.722;9.316;2022-10-31T06:51:16;98477.78;;;7.95;100.00
2785;BME280;57944;48.722;9.316;2022-10-31T06:53:48;98479.63;;;8.17;100.00
2785;BME280;57944;48.722;9.316;2022-10-31T06:56:19;98479.16;;;8.22;100.00
2785;BME280;57944;48.722;9.316;2022-10-31T06:58:55;98480.78;;;8.54;100.00
2785;BME280;57944;48.722;9.316;2022-10-31T07:01:53;98479.41;;;8.43;100.00
2785;BME280;57944;48.722;9.316;2022-10-31T07:04:23;98472.09;;;8.40;100.00
2785;BME280;57944;48.722;9.316;2022-10-31T07:06:54;98474.81;;;8.39;100.00
2785;BME280;57944;48.722;9.316;2022-10-31T07:09:24;98477.63;;;8.44;100.00
2785;BME280;57944;48.722;9.316;2022-10-31T07:11:56;98478.84;;;8.64;100.00
2785;BME280;57944;48.722;9.316;2022-10-31T07:14:28;98473.00;;;8.56;100.00
2785;BME280;57944;48.722;9.316;2022-10-31T07:17:01;98474.59;;;8.80;100.00
2785;BME280;57944;48.722;9.316;2022-10-31T07:19:34;98475.66;;;9.16;100.00
2785;BME280;57944;48.722;9.316;2022-10-31T07:22:04;98484.56;;;9.35;100.00
2785;BME280;57944;48.722;9.316;2022-10-31T07:24:35;98477.72;;;9.36;100.00
2785;BME280;57944;48.722;9.316;2022-10-31T07:27:11;98484.91;;;9.32;100.00
2785;BME280;57944;48.722;9.316;2022-10-31T07:29:42;98482.47;;;9.39;100.00
2785;BME280;57944;48.722;9.316;2022-10-31T07:32:15;98482.94;;;9.57;100.00
2785;BME280;57944;48.722;9.316;2022-10-31T07:34:51;98486.75;;;9.61;100.00
2785;BME280;57944;48.722;9.316;2022-10-31T07:37:27;98483.94;;;9.71;100.00
2785;BME280;57944;48.722;9.316;2022-10-31T07:39:58;98486.13;;;9.59;100.00
2785;BME280;57944;48.722;9.316;2022-10-31T07:42:34;98476.56;;;9.61;100.00
2785;BME280;57944;48.722;9.316;2022-10-31T07:45:08;98481.38;;;9.86;100.00
2785;BME280;57944;48.722;9.316;2022-10-31T07:48:01;98475.97;;;9.89;100.00
2785;BME280;57944;48.722;9.316;2022-10-31T07:50:52;98474.47;;;9.80;100.00
2785;BME280;57944;48.722;9.316;2022-10-31T07:53:40;98475.00;;;9.75;100.00
2785;BME280;57944;48.722;9.316;2022-10-31T07:56:18;98476.31;;;9.86;100.00
2785;BME280;57944;48.722;9.316;2022-10-31T07:58:48;98475.63;;;9.92;100.00
2785;BME280;57944;48.722;9.316;2022-10-31T08:01:18;98474.22;;;10.04;100.00
2785;BME280;57944;48.722;9.316;2022-10-31T08:04:09;98480.34;;;10.10;100.00
2785;BME280;57944;48.722;9.316;2022-10-31T08:07:09;98474.38;;;10.18;100.00
2785;BME280;57944;48.722;9.316;2022-10-31T08:09:44;98485.38;;;10.33;100.00
2785;BME280;57944;48.722;9.316;2022-10-31T08:12:19;98480.69;;;10.51;100.00
2785;BME280;57944;48.722;9.316;2022-10-31T08:14:49;98482.09;;;10.54;100.00
2785;BME280;57944;48.722;9.316;2022-10-31T08:17:19;98474.13;;;10.79;100.00
2785;BME280;57944;48.722;9.316;2022-10-31T08:19:57;98476.38;;;10.88;100.00
2785;BME280;57944;48.722;9.316;2022-10-31T08:22:31;98477.47;;;10.79;100.00
2785;BME280;57944;48.722;9.316;2022-10-31T08:25:08;98481.56;;;10.95;100.00
2785;BME280;57944;48.722;9.316;2022-10-31T08:27:39;98476.25;;;11.18;100.00
2785;BME280;57944;48.722;9.316;2022-10-31T08:30:17;98477.28;;;11.45;100.00
2785;BME280;57944;48.722;9.316;2022-10-31T08:33:11;98475.53;;;11.80;100.00
2785;BME280;57944;48.722;9.316;2022-10-31T08:36:05;98470.16;;;11.97;100.00
2785;BME280;57944;48.722;9.316;2022-10-31T08:38:55;98467.94;;;12.22;100.00
2785;BME280;57944;48.722;9.316;2022-10-31T08:41:29;98465.84;;;12.39;100.00
2785;BME280;57944;48.722;9.316;2022-10-31T08:44:00;98459.78;;;12.53;100.00
2785;BME280;57944;48.722;9.316;2022-10-31T08:46:31;98465.31;;;12.63;100.00
2785;BME280;57944;48.722;9.316;2022-10-31T08:49:03;98464.41;;;12.97;100.00
2785;BME280;57944;48.722;9.316;2022-10-31T08:51:36;98458.34;;;13.18;100.00
2785;BME280;57944;48.722;9.316;2022-10-31T08:54:06;98452.25;;;13.46;100.00
2785;BME280;57944;48.722;9.316;2022-10-31T08:56:57;98453.38;;;13.83;100.00
2785;BME280;57944;48.722;9.316;2022-10-31T08:59:40;98454.75;;;13.86;100.00
2785;BME280;57944;48.722;9.316;2022-10-31T09:02:24;98452.28;;;14.18;100.00
2785;BME280;57944;48.722;9.316;2022-10-31T09:04:58;98449.41;;;14.46;100.00
2785;BME280;57944;48.722;9.316;2022-10-31T09:07:31;98448.91;;;14.69;100.00
2785;BME280;57944;48.722;9.316;2022-10-31T09:10:02;98452.97;;;14.83;100.00
2785;BME280;57944;48.722;9.316;2022-10-31T09:12:35;98451.28;;;14.95;100.00
2785;BME280;57944;48.722;9.316;2022-10-31T09:15:23;98453.41;;;15.05;100.00
2785;BME280;57944;48.722;9.316;2022-10-31T09:18:15;98460.19;;;14.93;100.00
2785;BME280;57944;48.722;9.316;2022-10-31T09:21:04;98448.50;;;14.72;100.00
2785;BME280;57944;48.722;9.316;2022-10-31T09:23:37;98451.66;;;14.74;100.00
2785;BME280;57944;48.722;9.316;2022-10-31T09:26:07;98449.78;;;14.88;100.00
2785;BME280;57944;48.722;9.316;2022-10-31T09:28:40;98452.25;;;15.01;100.00
2785;BME280;57944;48.722;9.316;2022-10-31T09:31:13;98444.13;;;15.29;100.00
2785;BME280;57944;48.722;9.316;2022-10-31T09:33:46;98450.31;;;15.47;100.00
2785;BME280;57944;48.722;9.316;2022-10-31T09:36:35;98446.63;;;15.61;100.00
2785;BME280;57944;48.722;9.316;2022-10-31T09:39:11;98441.75;;;15.78;100.00
2785;BME280;57944;48.722;9.316;2022-10-31T09:42:25;98439.59;;;15.93;100.00
2785;BME280;57944;48.722;9.316;2022-10-31T09:45:10;98434.25;;;16.13;100.00
2785;BME280;57944;48.722;9.316;2022-10-31T09:47:59;98435.50;;;16.22;100.00
2785;BME280;57944;48.722;9.316;2022-10-31T09:50:41;98436.28;;;16.53;100.00
2785;BME280;57944;48.722;9.316;2022-10-31T09:53:40;98435.22;;;16.72;100.00
2785;BME280;57944;48.722;9.316;2022-10-31T09:56:21;98430.03;;;16.91;100.00
2785;BME280;57944;48.722;9.316;2022-10-31T09:58:58;98433.66;;;17.13;100.00
2785;BME280;57944;48.722;9.316;2022-10-31T10:01:41;98429.06;;;17.15;100.00
2785;BME280;57944;48.722;9.316;2022-10-31T10:04:36;98435.09;;;17.21;100.00
2785;BME280;57944;48.722;9.316;2022-10-31T10:07:22;98426.50;;;17.51;100.00
2785;BME280;57944;48.722;9.316;2022-10-31T10:10:16;98422.66;;;17.65;100.00
2785;BME280;57944;48.722;9.316;2022-10-31T10:13:12;98418.06;;;17.79;100.00
2785;BME280;57944;48.722;9.316;2022-10-31T10:16:09;98416.16;;;17.86;100.00
2785;BME280;57944;48.722;9.316;2022-10-31T10:19:03;98422.38;;;18.14;100.00
2785;BME280;57944;48.722;9.316;2022-10-31T10:21:45;98423.28;;;18.36;100.00
2785;BME280;57944;48.722;9.316;2022-10-31T10:24:33;98424.28;;;18.35;100.00
2785;BME280;57944;48.722;9.316;2022-10-31T10:27:17;98419.41;;;18.50;100.00
2785;BME280;57944;48.722;9.316;2022-10-31T10:30:01;98417.34;;;18.81;100.00
2785;BME280;57944;48.722;9.316;2022-10-31T10:32:42;98413.91;;;18.92;100.00
2785;BME280;57944;48.722;9.316;2022-10-31T10:35:24;98413.28;;;19.02;100.00
2785;BME280;57944;48.722;9.316;2022-10-31T10:38:02;98413.25;;;19.19;99.71
2785;BME280;57944;48.722;9.316;2022-10-31T10:40:33;98407.13;;;19.42;97.13
2785;BME280;57944;48.722;9.316;2022-10-31T10:43:20;98397.16;;;19.51;97.29
2785;BME280;57944;48.722;9.316;2022-10-31T10:46:17;98409.75;;;19.64;95.79
2785;BME280;57944;48.722;9.316;2022-10-31T10:49:16;98405.41;;;19.48;100.00
2785;BME280;57944;48.722;9.316;2022-10-31T10:51:52;98395.47;;;19.39;100.00
2785;BME280;57944;48.722;9.316;2022-10-31T10:55:03;98385.47;;;19.26;100.00
2785;BME280;57944;48.722;9.316;2022-10-31T10:57:55;98388.94;;;18.98;100.00
2785;BME280;57944;48.722;9.316;2022-10-31T11:00:30;98380.09;;;18.94;100.00
2785;BME280;57944;48.722;9.316;2022-10-31T11:03:04;98378.31;;;18.94;97.00
2785;BME280;57944;48.722;9.316;2022-10-31T11:05:39;98375.88;;;18.88;100.00
2785;BME280;57944;48.722;9.316;2022-10-31T11:08:23;98373.41;;;19.15;100.00
2785;BME280;57944;48.722;9.316;2022-10-31T11:11:01;98367.19;;;19.33;99.06
2785;BME280;57944;48.722;9.316;2022-10-31T11:13:34;98361.88;;;19.39;100.00
2785;BME280;57944;48.722;9.316;2022-10-31T11:16:09;98363.06;;;19.54;100.00
2785;BME280;57944;48.722;9.316;2022-10-31T11:18:45;98354.84;;;19.79;100.00
2785;BME280;57944;48.722;9.316;2022-10-31T11:21:24;98347.50;;;19.93;98.46
2785;BME280;57944;48.722;9.316;2022-10-31T11:24:03;98344.03;;;20.09;92.07
2785;BME280;57944;48.722;9.316;2022-10-31T11:26:34;98336.72;;;20.33;92.83
2785;BME280;57944;48.722;9.316;2022-10-31T11:29:13;98327.69;;;20.36;91.29
2785;BME280;57944;48.722;9.316;2022-10-31T11:31:46;98324.09;;;20.37;88.74
2785;BME280;57944;48.722;9.316;2022-10-31T11:34:31;98326.66;;;20.04;96.87
2785;BME280;57944;48.722;9.316;2022-10-31T11:37:21;98317.34;;;20.03;89.36
2785;BME280;57944;48.722;9.316;2022-10-31T11:39:54;98309.38;;;20.10;88.94
2785;BME280;57944;48.722;9.316;2022-10-31T11:42:27;98315.38;;;20.16;87.67
2785;BME280;57944;48.722;9.316;2022-10-31T11:44:58;98304.34;;;19.98;89.74
2785;BME280;57944;48.722;9.316;2022-10-31T11:47:31;98300.66;;;20.21;85.79
2785;BME280;57944;48.722;9.316;2022-10-31T11:50:19;98299.25;;;20.41;85.29
2785;BME280;57944;48.722;9.316;2022-10-31T11:52:51;98292.19;;;20.63;83.96
2785;BME280;57944;48.722;9.316;2022-10-31T11:55:32;98295.59;;;20.69;82.77
2785;BME280;57944;48.722;9.316;2022-10-31T11:58:03;98292.31;;;20.79;80.18
2785;BME280;57944;48.722;9.316;2022-10-31T12:00:36;98288.25;;;20.98;79.86
2785;BME280;57944;48.722;9.316;2022-10-31T12:03:16;98281.13;;;20.73;81.43
2785;BME280;57944;48.722;9.316;2022-10-31T12:06:00;98284.38;;;20.58;83.55
2785;BME280;57944;48.722;9.316;2022-10-31T12:08:34;98283.38;;;20.64;84.53
2785;BME280;57944;48.722;9.316;2022-10-31T12:11:11;98276.78;;;20.84;82.09
2785;BME280;57944;48.722;9.316;2022-10-31T12:13:56;98276.13;;;21.14;80.14
2785;BME280;57944;48.722;9.316;2022-10-31T12:16:34;98273.84;;;21.17;79.71
2785;BME280;57944;48.722;9.316;2022-10-31T12:19:13;98262.38;;;21.08;80.97
2785;BME280;57944;48.722;9.316;2022-10-31T12:22:08;98262.28;;;20.88;85.49
2785;BME280;57944;48.722;9.316;2022-10-31T12:25:04;98259.78;;;21.08;79.38
2785;BME280;57944;48.722;9.316;2022-10-31T12:27:55;98259.75;;;21.03;80.23
2785;BME280;57944;48.722;9.316;2022-10-31T12:30:35;98252.75;;;20.98;80.05
2785;BME280;57944;48.722;9.316;2022-10-31T12:33:27;98249.38;;;20.93;81.04
2785;BME280;57944;48.722;9.316;2022-10-31T12:36:21;98246.47;;;20.84;81.06
2785;BME280;57944;48.722;9.316;2022-10-31T12:42:02;98232.59;;;20.58;84.29
2785;BME280;57944;48.722;9.316;2022-10-31T12:44:47;98234.69;;;20.61;84.01
2785;BME280;57944;48.722;9.316;2022-10-31T12:47:40;98231.25;;;20.50;86.43
2785;BME280;57944;48.722;9.316;2022-10-31T12:50:31;98217.25;;;20.51;85.87
2785;BME280;57944;48.722;9.316;2022-10-31T12:53:16;98212.47;;;20.70;84.57
2785;BME280;57944;48.722;9.316;2022-10-31T12:56:03;98196.78;;;20.45;85.92
2785;BME280;57944;48.722;9.316;2022-10-31T12:58:43;98204.94;;;20.26;86.45
2785;BME280;57944;48.722;9.316;2022-10-31T13:01:19;98203.03;;;20.12;88.17
2785;BME280;57944;48.722;9.316;2022-10-31T13:03:55;98200.09;;;20.03;88.99
2785;BME280;57944;48.722;9.316;2022-10-31T13:06:32;98196.38;;;19.89;88.86
2785;BME280;57944;48.722;9.316;2022-10-31T13:09:13;98186.25;;;19.82;89.33
2785;BME280;57944;48.722;9.316;2022-10-31T13:11:53;98183.06;;;19.75;90.95
2785;BME280;57944;48.722;9.316;2022-10-31T13:14:33;98180.16;;;19.66;91.99
2785;BME280;57944;48.722;9.316;2022-10-31T13:17:27;98175.72;;;19.61;93.11
2785;BME280;57944;48.722;9.316;2022-10-31T13:20:16;98174.84;;;19.51;97.33
2785;BME280;57944;48.722;9.316;2022-10-31T13:22:53;98179.75;;;19.52;95.10
2785;BME280;57944;48.722;9.316;2022-10-31T13:25:28;98172.94;;;19.68;96.70
2785;BME280;57944;48.722;9.316;2022-10-31T13:28:15;98169.91;;;19.76;95.17
2785;BME280;57944;48.722;9.316;2022-10-31T13:30:51;98167.78;;;19.68;95.79
2785;BME280;57944;48.722;9.316;2022-10-31T13:33:27;98158.78;;;19.76;93.98
2785;BME280;57944;48.722;9.316;2022-10-31T13:36:15;98157.28;;;19.85;95.73
2785;BME280;57944;48.722;9.316;2022-10-31T13:38:54;98154.28;;;19.98;94.13
2785;BME280;57944;48.722;9.316;2022-10-31T13:41:44;98148.38;;;20.08;93.07
2785;BME280;57944;48.722;9.316;2022-10-31T13:44:22;98152.16;;;20.33;92.27
2785;BME280;57944;48.722;9.316;2022-10-31T13:46:54;98152.34;;;20.63;88.90
2785;BME280;57944;48.722;9.316;2022-10-31T13:49:38;98159.47;;;20.93;86.18
2785;BME280;57944;48.722;9.316;2022-10-31T13:52:21;98155.09;;;21.19;83.55
2785;BME280;57944;48.722;9.316;2022-10-31T13:54:54;98150.53;;;21.37;82.99
2785;BME280;57944;48.722;9.316;2022-10-31T13:57:38;98141.38;;;21.24;78.28
2785;BME280;57944;48.722;9.316;2022-10-31T14:00:25;98144.50;;;21.21;80.05
2785;BME280;57944;48.722;9.316;2022-10-31T14:03:01;98149.47;;;20.55;85.25
2785;BME280;57944;48.722;9.316;2022-10-31T14:05:34;98142.41;;;20.50;84.45
2785;BME280;57944;48.722;9.316;2022-10-31T14:08:17;98125.75;;;20.30;87.05
2785;BME280;57944;48.722;9.316;2022-10-31T14:10:51;98117.94;;;20.20;90.72
2785;BME280;57944;48.722;9.316;2022-10-31T14:13:31;98132.91;;;20.13;88.69